createdAt,value
2023-02-18T00:02:30.049Z,1.30
2023-02-18T00:05:17.164Z,1.60
2023-02-18T00:08:04.268Z,1.50
2023-02-18T00:10:51.378Z,1.60
2023-02-18T00:13:38.416Z,1.30
2023-02-18T00:16:26.711Z,1.40
2023-02-18T00:19:17.084Z,1.30
2023-02-18T00:22:04.226Z,1.00
2023-02-18T00:24:51.376Z,1.33
2023-02-18T00:27:38.337Z,1.10
2023-02-18T00:30:25.373Z,1.10
2023-02-18T00:33:13.264Z,1.40
2023-02-18T00:36:10.098Z,1.30
2023-02-18T00:38:59.843Z,1.30
2023-02-18T00:41:46.824Z,1.10
2023-02-18T00:44:35.534Z,1.03
2023-02-18T00:47:22.509Z,1.37
2023-02-18T00:50:10.593Z,1.30
2023-02-18T00:52:57.488Z,1.10
2023-02-18T00:55:47.809Z,1.10
2023-02-18T00:58:36.146Z,1.00
2023-02-18T01:01:24.877Z,1.27
2023-02-18T01:04:11.981Z,1.07
2023-02-18T01:06:58.961Z,1.00
2023-02-18T01:09:45.893Z,1.17
2023-02-18T01:12:34.021Z,1.17
2023-02-18T01:15:22.354Z,1.13
2023-02-18T01:18:09.756Z,0.90
2023-02-18T01:20:57.334Z,1.03
2023-02-18T01:23:44.636Z,1.00
2023-02-18T01:26:31.717Z,1.20
2023-02-18T01:29:18.677Z,1.30
2023-02-18T01:32:05.864Z,1.07
2023-02-18T01:34:53.011Z,1.13
2023-02-18T01:37:40.378Z,1.03
2023-02-18T01:40:29.594Z,1.10
2023-02-18T01:43:17.072Z,1.10
2023-02-18T01:46:13.049Z,1.00
2023-02-18T01:49:01.528Z,1.10
2023-02-18T01:51:59.308Z,1.00
2023-02-18T01:54:50.138Z,1.03
2023-02-18T01:57:38.510Z,1.00
2023-02-18T02:00:25.753Z,1.10
2023-02-18T02:03:13.338Z,1.00
2023-02-18T02:06:14.112Z,1.27
2023-02-18T02:09:03.684Z,0.93
2023-02-18T02:12:08.711Z,1.10
2023-02-18T02:15:14.034Z,1.00
2023-02-18T02:18:22.855Z,0.80
2023-02-18T02:21:28.409Z,1.07
2023-02-18T02:24:55.381Z,0.90
2023-02-18T02:28:07.260Z,0.80
2023-02-18T02:31:19.307Z,1.07
2023-02-18T02:34:24.708Z,0.80
2023-02-18T02:37:31.433Z,1.03
2023-02-18T02:40:41.541Z,0.80
2023-02-18T02:44:11.653Z,0.77
2023-02-18T02:47:08.193Z,0.87
2023-02-18T02:50:05.381Z,0.90
2023-02-18T02:52:58.063Z,0.70
2023-02-18T02:55:45.119Z,0.77
2023-02-18T02:58:32.292Z,0.83
2023-02-18T03:01:24.947Z,0.80
2023-02-18T03:04:17.817Z,0.73
2023-02-18T03:07:22.464Z,0.70
2023-02-18T03:10:32.418Z,0.70
2023-02-18T03:13:56.427Z,0.70
2023-02-18T03:16:53.110Z,0.70
2023-02-18T03:19:45.703Z,0.80
2023-02-18T03:22:39.113Z,0.60
2023-02-18T03:25:26.871Z,0.60
2023-02-18T03:28:22.741Z,0.70
2023-02-18T03:31:13.875Z,0.60
2023-02-18T03:34:10.927Z,0.77
2023-02-18T03:37:00.057Z,0.70
2023-02-18T03:39:52.449Z,0.60
2023-02-18T03:42:39.416Z,0.53
2023-02-18T03:45:27.743Z,0.70
2023-02-18T03:48:14.737Z,0.70
2023-02-18T03:51:01.788Z,0.70
2023-02-18T03:53:49.177Z,0.60
2023-02-18T03:56:37.350Z,0.60
2023-02-18T03:59:24.331Z,0.60
2023-02-18T04:02:11.292Z,0.70
2023-02-18T04:04:58.460Z,0.53
2023-02-18T04:07:45.518Z,0.80
2023-02-18T04:10:32.520Z,0.70
2023-02-18T04:13:19.760Z,0.90
2023-02-18T04:16:07.461Z,0.60
2023-02-18T04:18:54.566Z,0.90
2023-02-18T04:21:41.545Z,0.70
2023-02-18T04:24:28.581Z,0.70
2023-02-18T04:27:15.595Z,0.83
2023-02-18T04:30:03.996Z,0.90
2023-02-18T04:32:51.357Z,0.83
2023-02-18T04:35:42.047Z,0.60
2023-02-18T04:38:29.554Z,0.90
2023-02-18T04:41:16.563Z,0.70
2023-02-18T04:44:03.709Z,0.87
2023-02-18T04:46:50.718Z,0.60
2023-02-18T04:49:37.743Z,0.80
2023-02-18T04:52:24.751Z,0.70
2023-02-18T04:55:11.922Z,0.60
2023-02-18T04:57:58.896Z,0.57
2023-02-18T05:00:46.363Z,0.67
2023-02-18T05:03:33.641Z,0.70
2023-02-18T05:06:20.582Z,0.70
2023-02-18T05:09:07.542Z,0.87
2023-02-18T05:11:54.875Z,1.00
2023-02-18T05:14:41.856Z,0.80
2023-02-18T05:17:28.812Z,0.70
2023-02-18T05:20:15.811Z,0.83
2023-02-18T05:23:02.827Z,0.70
2023-02-18T05:25:49.812Z,0.90
2023-02-18T05:28:36.801Z,0.87
2023-02-18T05:31:24.144Z,1.07
2023-02-18T05:34:11.176Z,1.30
2023-02-18T05:36:58.160Z,1.00
2023-02-18T05:39:45.781Z,0.80
2023-02-18T05:42:33.043Z,0.90
2023-02-18T05:45:20.061Z,0.83
2023-02-18T05:48:07.062Z,0.80
2023-02-18T05:50:54.426Z,0.80
2023-02-18T05:53:41.533Z,0.90
2023-02-18T05:56:28.499Z,0.90
2023-02-18T05:59:15.547Z,0.77
2023-02-18T06:02:02.537Z,1.10
2023-02-18T06:04:49.677Z,0.97
2023-02-18T06:07:36.752Z,1.00
2023-02-18T06:10:23.807Z,0.80
2023-02-18T06:13:10.783Z,0.80
2023-02-18T06:15:57.814Z,1.47
2023-02-18T06:18:44.814Z,1.00
2023-02-18T06:21:32.335Z,1.00
2023-02-18T06:24:19.376Z,0.90
2023-02-18T06:27:06.893Z,0.80
2023-02-18T06:29:53.832Z,0.80
2023-02-18T06:32:40.757Z,0.83
2023-02-18T06:35:27.756Z,0.90
2023-02-18T06:38:14.681Z,0.70
2023-02-18T06:41:02.008Z,0.70
2023-02-18T06:43:49.125Z,0.70
2023-02-18T06:46:36.150Z,1.00
2023-02-18T06:49:23.161Z,0.80
2023-02-18T06:52:10.163Z,0.80
2023-02-18T06:54:57.208Z,0.70
2023-02-18T06:57:44.276Z,0.60
2023-02-18T07:00:31.371Z,0.67
2023-02-18T07:03:18.435Z,0.90
2023-02-18T07:06:05.656Z,0.80
2023-02-18T07:08:52.638Z,0.80
2023-02-18T07:11:39.675Z,0.73
2023-02-18T07:14:28.035Z,0.80
2023-02-18T07:17:15.154Z,0.80
2023-02-18T07:20:02.497Z,0.70
2023-02-18T07:22:50.228Z,0.80
2023-02-18T07:25:37.211Z,0.80
2023-02-18T07:28:24.206Z,0.70
2023-02-18T07:31:11.273Z,0.73
2023-02-18T07:33:58.225Z,0.80
2023-02-18T07:36:45.236Z,0.80
2023-02-18T07:39:32.264Z,0.80
2023-02-18T07:42:19.203Z,0.80
2023-02-18T07:45:06.647Z,0.90
2023-02-18T07:47:53.605Z,1.00
2023-02-18T07:50:42.239Z,1.07
2023-02-18T07:53:29.217Z,0.67
2023-02-18T07:56:16.489Z,0.90
2023-02-18T07:59:03.687Z,0.87
2023-02-18T08:01:50.760Z,0.70
2023-02-18T08:04:37.735Z,0.73
2023-02-18T08:07:24.667Z,0.80
2023-02-18T08:10:11.598Z,0.90
2023-02-18T08:12:58.574Z,1.00
2023-02-18T08:15:45.795Z,0.70
2023-02-18T08:18:33.338Z,0.73
2023-02-18T08:21:21.995Z,0.60
2023-02-18T08:24:09.102Z,0.80
2023-02-18T08:27:00.958Z,0.73
2023-02-18T08:29:48.313Z,0.93
2023-02-18T08:32:35.425Z,0.90
2023-02-18T08:35:22.477Z,0.90
2023-02-18T08:38:09.517Z,0.90
2023-02-18T08:41:04.892Z,0.93
2023-02-18T08:43:51.903Z,1.73
2023-02-18T08:46:38.880Z,1.00
2023-02-18T08:49:25.947Z,1.80
2023-02-18T08:52:13.587Z,1.00
2023-02-18T08:55:00.849Z,0.60
2023-02-18T08:57:48.505Z,0.80
2023-02-18T09:00:36.589Z,0.60
2023-02-18T09:03:23.505Z,0.77
2023-02-18T09:06:11.578Z,0.87
2023-02-18T09:08:58.564Z,0.90
2023-02-18T09:11:45.998Z,0.80
2023-02-18T09:14:33.019Z,1.00
2023-02-18T09:17:20.148Z,1.13
2023-02-18T09:20:07.877Z,0.90
2023-02-18T09:22:54.835Z,1.10
2023-02-18T09:25:42.033Z,1.30
2023-02-18T09:28:29.077Z,0.90
2023-02-18T09:31:19.613Z,0.80
2023-02-18T09:34:06.764Z,0.90
2023-02-18T09:36:53.722Z,0.73
2023-02-18T09:39:40.666Z,1.40
2023-02-18T09:42:34.092Z,0.97
2023-02-18T09:45:21.826Z,1.00
2023-02-18T09:48:10.121Z,1.10
2023-02-18T09:50:57.562Z,0.77
2023-02-18T09:53:45.799Z,1.00
2023-02-18T09:56:38.580Z,1.70
2023-02-18T09:59:27.203Z,1.30
2023-02-18T10:02:17.456Z,1.37
2023-02-18T10:05:04.944Z,0.90
2023-02-18T10:07:55.505Z,1.10
2023-02-18T10:10:46.268Z,0.87
2023-02-18T10:13:34.408Z,1.03
2023-02-18T10:16:23.323Z,1.13
2023-02-18T10:19:34.619Z,1.40
2023-02-18T10:22:23.989Z,1.00
2023-02-18T10:25:19.267Z,1.00
2023-02-18T10:28:06.618Z,1.00
2023-02-18T10:31:01.995Z,1.00
2023-02-18T10:34:01.065Z,1.10
2023-02-18T10:36:55.747Z,0.93
2023-02-18T10:39:54.292Z,0.90
2023-02-18T10:42:56.347Z,1.00
2023-02-18T10:45:57.609Z,1.20
2023-02-18T10:49:01.680Z,4.70
2023-02-18T10:51:55.139Z,1.90
2023-02-18T10:55:13.572Z,1.23
2023-02-18T10:58:00.602Z,1.10
2023-02-18T11:00:47.631Z,1.20
2023-02-18T11:03:49.893Z,1.60
2023-02-18T11:06:44.722Z,1.50
2023-02-18T11:09:52.081Z,1.00
2023-02-18T11:12:46.750Z,0.90
2023-02-18T11:15:34.647Z,1.20
2023-02-18T11:18:43.049Z,0.87
2023-02-18T11:21:36.289Z,0.90
2023-02-18T11:24:24.875Z,1.00
2023-02-18T11:27:24.839Z,0.80
2023-02-18T11:30:25.769Z,0.80
2023-02-18T11:33:20.516Z,0.90
2023-02-18T11:36:17.791Z,0.50
2023-02-18T11:39:26.632Z,1.00
2023-02-18T11:42:16.922Z,0.90
2023-02-18T11:45:05.701Z,0.70
2023-02-18T11:48:06.480Z,0.80
2023-02-18T11:50:54.031Z,0.60
2023-02-18T11:54:01.042Z,0.80
2023-02-18T11:57:14.421Z,0.80
2023-02-18T12:00:02.527Z,0.77
2023-02-18T12:02:59.496Z,0.60
2023-02-18T12:05:46.887Z,0.60
2023-02-18T12:08:47.906Z,0.87
2023-02-18T12:11:42.299Z,0.50
2023-02-18T12:14:29.767Z,0.60
2023-02-18T12:17:47.869Z,0.73
2023-02-18T12:21:20.485Z,0.83
2023-02-18T12:24:32.085Z,0.80
2023-02-18T12:27:43.135Z,0.70
2023-02-18T12:30:58.158Z,0.80
2023-02-18T12:34:07.509Z,0.80
2023-02-18T12:37:12.178Z,0.70
2023-02-18T12:40:21.940Z,0.57
2023-02-18T12:43:27.350Z,0.80
2023-02-18T12:46:37.543Z,0.80
2023-02-18T12:50:00.470Z,0.57
2023-02-18T12:53:13.334Z,0.87
2023-02-18T12:56:24.360Z,0.70
2023-02-18T12:59:17.077Z,0.60
2023-02-18T13:02:22.928Z,0.53
2023-02-18T13:05:32.869Z,0.73
2023-02-18T13:08:39.193Z,0.80
2023-02-18T13:11:50.942Z,0.63
2023-02-18T13:14:57.181Z,0.70
2023-02-18T13:17:45.252Z,0.90
2023-02-18T13:20:42.373Z,0.70
2023-02-18T13:23:34.632Z,0.80
2023-02-18T13:26:22.458Z,0.80
2023-02-18T13:29:15.337Z,0.70
2023-02-18T13:32:23.942Z,0.70
2023-02-18T13:35:13.944Z,0.57
2023-02-18T13:38:27.029Z,1.13
2023-02-18T13:41:14.125Z,0.70
2023-02-18T13:44:01.080Z,0.70
2023-02-18T13:46:53.806Z,0.80
2023-02-18T13:49:41.221Z,0.60
2023-02-18T13:52:28.239Z,0.80
2023-02-18T13:55:32.854Z,0.80
2023-02-18T13:58:24.511Z,0.53
2023-02-18T14:01:11.496Z,0.63
2023-02-18T14:03:59.847Z,0.60
2023-02-18T14:07:20.728Z,0.67
2023-02-18T14:10:13.710Z,0.80
2023-02-18T14:13:22.501Z,0.90
2023-02-18T14:16:10.804Z,0.70
2023-02-18T14:19:00.272Z,0.60
2023-02-18T14:21:47.300Z,0.70
2023-02-18T14:24:48.701Z,0.70
2023-02-18T14:27:38.283Z,0.70
2023-02-18T14:30:40.765Z,0.83
2023-02-18T14:33:31.628Z,0.73
2023-02-18T14:36:45.647Z,0.83
2023-02-18T14:40:03.374Z,0.80
2023-02-18T14:42:56.516Z,0.77
2023-02-18T14:46:05.438Z,1.10
2023-02-18T14:49:24.151Z,1.00
2023-02-18T14:52:23.584Z,0.90
2023-02-18T14:55:23.828Z,0.97
2023-02-18T14:58:38.591Z,0.80
2023-02-18T15:01:32.490Z,1.03
2023-02-18T15:04:19.789Z,1.20
2023-02-18T15:07:10.062Z,1.30
2023-02-18T15:09:57.455Z,1.10
2023-02-18T15:12:44.474Z,1.23
2023-02-18T15:15:34.833Z,0.90
2023-02-18T15:18:29.937Z,1.00
2023-02-18T15:21:24.554Z,0.80
2023-02-18T15:24:32.483Z,0.67
2023-02-18T15:27:28.051Z,1.10
2023-02-18T15:30:24.794Z,0.80
2023-02-18T15:33:13.197Z,0.90
2023-02-18T15:36:04.414Z,0.80
2023-02-18T15:38:51.468Z,3.20
2023-02-18T15:41:39.294Z,2.20
2023-02-18T15:44:28.845Z,1.17
2023-02-18T15:47:17.991Z,1.13
2023-02-18T15:50:05.986Z,1.20
2023-02-18T15:52:56.026Z,1.10
2023-02-18T15:55:47.213Z,0.90
2023-02-18T15:58:34.298Z,0.87
2023-02-18T16:01:29.204Z,0.90
2023-02-18T16:04:16.338Z,0.90
2023-02-18T16:07:19.291Z,1.00
2023-02-18T16:10:16.192Z,1.60
2023-02-18T16:13:04.592Z,1.30
2023-02-18T16:15:53.410Z,1.53
2023-02-18T16:18:41.641Z,1.70
2023-02-18T16:21:38.085Z,2.30
2023-02-18T16:24:27.954Z,1.90
2023-02-18T16:27:16.914Z,2.90
2023-02-18T16:30:34.541Z,3.30
2023-02-18T16:33:21.574Z,2.83
2023-02-18T16:36:15.448Z,5.30
2023-02-18T16:39:02.422Z,3.20
2023-02-18T16:41:49.605Z,3.27
2023-02-18T16:44:36.832Z,3.13
2023-02-18T16:47:23.848Z,3.10
2023-02-18T16:50:20.724Z,2.07
2023-02-18T16:53:07.826Z,1.70
2023-02-18T16:55:55.380Z,1.60
2023-02-18T16:58:42.649Z,2.10
2023-02-18T17:01:32.965Z,2.90
2023-02-18T17:04:20.127Z,2.37
2023-02-18T17:07:10.918Z,1.87
2023-02-18T17:09:58.301Z,1.40
2023-02-18T17:12:45.382Z,1.60
2023-02-18T17:15:35.364Z,1.80
2023-02-18T17:18:23.969Z,2.50
2023-02-18T17:21:13.699Z,1.80
2023-02-18T17:24:00.736Z,1.60
2023-02-18T17:26:47.844Z,1.30
2023-02-18T17:29:34.800Z,2.03
2023-02-18T17:32:21.721Z,2.07
2023-02-18T17:35:15.161Z,1.93
2023-02-18T17:38:02.184Z,1.70
2023-02-18T17:40:50.608Z,1.80
2023-02-18T17:43:38.118Z,1.47
2023-02-18T17:46:25.174Z,1.47
2023-02-18T17:49:12.691Z,1.40
2023-02-18T17:52:01.192Z,1.67
2023-02-18T17:54:48.108Z,1.83
2023-02-18T17:57:35.021Z,1.63
2023-02-18T18:00:28.809Z,1.27
2023-02-18T18:03:16.657Z,1.40
2023-02-18T18:06:04.555Z,1.60
2023-02-18T18:08:51.509Z,1.10
2023-02-18T18:11:38.974Z,1.50
2023-02-18T18:14:25.943Z,1.40
2023-02-18T18:17:13.539Z,1.60
2023-02-18T18:20:00.493Z,1.30
2023-02-18T18:22:47.854Z,1.30
2023-02-18T18:25:38.591Z,1.40
2023-02-18T18:28:26.906Z,0.97
2023-02-18T18:31:17.942Z,0.97
2023-02-18T18:34:05.100Z,1.50
2023-02-18T18:36:52.210Z,1.10
2023-02-18T18:39:39.141Z,1.37
2023-02-18T18:42:26.194Z,1.77
2023-02-18T18:45:23.344Z,1.43
2023-02-18T18:48:10.328Z,1.40
2023-02-18T18:50:58.926Z,1.70
2023-02-18T18:53:45.972Z,1.97
2023-02-18T18:56:32.923Z,1.40
2023-02-18T18:59:20.004Z,1.77
2023-02-18T19:02:16.280Z,1.70
2023-02-18T19:05:04.257Z,1.50
2023-02-18T19:07:51.461Z,1.70
2023-02-18T19:10:41.621Z,1.80
2023-02-18T19:13:31.195Z,1.87
2023-02-18T19:16:22.312Z,1.97
2023-02-18T19:19:10.703Z,1.83
2023-02-18T19:21:57.829Z,2.00
2023-02-18T19:24:44.811Z,2.47
2023-02-18T19:27:31.806Z,2.10
2023-02-18T19:30:22.789Z,1.30
2023-02-18T19:33:12.798Z,1.50
2023-02-18T19:35:59.752Z,1.53
2023-02-18T19:38:46.990Z,2.37
2023-02-18T19:41:33.955Z,3.80
2023-02-18T19:44:20.947Z,7.60
2023-02-18T19:47:07.945Z,6.60
2023-02-18T19:49:55.439Z,16.60
2023-02-18T19:52:42.519Z,12.73
2023-02-18T19:55:29.554Z,8.67
2023-02-18T19:58:16.498Z,8.67
2023-02-18T20:01:04.160Z,8.23
2023-02-18T20:03:51.152Z,9.87
2023-02-18T20:06:38.166Z,9.20
2023-02-18T20:09:25.263Z,7.10
2023-02-18T20:12:12.909Z,6.10
2023-02-18T20:15:00.218Z,6.53
2023-02-18T20:17:47.270Z,9.20
2023-02-18T20:20:34.208Z,7.53
2023-02-18T20:23:21.276Z,5.10
2023-02-18T20:26:09.761Z,4.47
2023-02-18T20:28:58.610Z,4.20
2023-02-18T20:31:46.046Z,6.20
2023-02-18T20:34:33.100Z,6.33
2023-02-18T20:37:20.138Z,4.57
2023-02-18T20:40:07.417Z,4.20
2023-02-18T20:42:54.382Z,2.47
2023-02-18T20:45:41.366Z,3.50
2023-02-18T20:48:28.985Z,4.40
2023-02-18T20:51:18.884Z,2.67
2023-02-18T20:54:09.783Z,2.10
2023-02-18T20:56:56.802Z,4.20
2023-02-18T20:59:44.043Z,5.13
2023-02-18T21:02:31.176Z,4.50
2023-02-18T21:05:19.644Z,5.53
2023-02-18T21:08:06.646Z,3.63
2023-02-18T21:10:53.788Z,7.67
2023-02-18T21:13:41.113Z,6.73
2023-02-18T21:16:29.362Z,5.97
2023-02-18T21:19:18.094Z,5.87
2023-02-18T21:22:05.060Z,3.97
2023-02-18T21:24:52.032Z,5.50
2023-02-18T21:27:39.009Z,6.03
2023-02-18T21:30:27.390Z,6.10
2023-02-18T21:33:14.417Z,5.00
2023-02-18T21:36:03.088Z,4.53
2023-02-18T21:38:58.426Z,4.80
2023-02-18T21:41:45.748Z,3.47
2023-02-18T21:44:41.690Z,4.73
2023-02-18T21:47:29.698Z,3.60
2023-02-18T21:50:16.859Z,2.87
2023-02-18T21:53:04.293Z,2.50
2023-02-18T21:56:03.286Z,3.73
2023-02-18T21:58:50.771Z,3.13
2023-02-18T22:01:37.791Z,2.80
2023-02-18T22:04:25.443Z,2.40
2023-02-18T22:07:13.455Z,2.43
2023-02-18T22:10:00.468Z,2.20
2023-02-18T22:12:47.490Z,1.90
2023-02-18T22:15:34.577Z,1.67
2023-02-18T22:18:21.646Z,1.83
2023-02-18T22:21:09.566Z,1.90
2023-02-18T22:23:56.834Z,1.70
2023-02-18T22:26:44.925Z,1.30
2023-02-18T22:29:32.303Z,1.67
2023-02-18T22:32:19.923Z,1.60
2023-02-18T22:35:07.516Z,1.63
2023-02-18T22:37:54.481Z,1.40
2023-02-18T22:40:41.483Z,1.60
2023-02-18T22:43:28.393Z,1.40
2023-02-18T22:46:17.403Z,1.10
2023-02-18T22:49:05.941Z,1.10
2023-02-18T22:51:54.419Z,1.50
2023-02-18T22:54:41.541Z,1.20
2023-02-18T22:57:28.519Z,1.00
2023-02-18T23:00:15.675Z,1.20
2023-02-18T23:03:02.642Z,1.00
2023-02-18T23:05:49.690Z,1.17
2023-02-18T23:08:36.730Z,0.90
2023-02-18T23:11:24.062Z,1.00
2023-02-18T23:14:21.197Z,0.97
2023-02-18T23:17:14.359Z,1.00
2023-02-18T23:20:01.502Z,0.90
2023-02-18T23:22:48.504Z,1.03
2023-02-18T23:25:35.477Z,0.87
2023-02-18T23:28:22.405Z,0.70
2023-02-18T23:31:10.041Z,1.17
2023-02-18T23:33:59.194Z,1.10
2023-02-18T23:36:47.458Z,1.07
2023-02-18T23:39:34.632Z,1.00
2023-02-18T23:42:21.578Z,0.80
2023-02-18T23:45:08.814Z,0.80
2023-02-18T23:47:55.845Z,1.20
2023-02-18T23:50:42.799Z,0.80
2023-02-18T23:53:31.279Z,1.03
2023-02-18T23:56:23.953Z,0.80
2023-02-18T23:59:11.827Z,0.80
